Decoded Metar for EPRA ( in _UNIDENTIFIED) (IATA:) | Meteo·Mobile Aviation Weather
aviador You're here:

EPRA Decoded Metar

in _UNIDENTIFIED
Report Time2019-07-16 10:30:00
UTC Time2019-07-16 10:47:07
Flight Rules vfr VFR
Wind260° at 10 kt
W.Decomp.*RWY 25: 9.9 kt HW 1.0 kt RCW
Visibility9999 m
Phenomena:N/A
Clouds:Broken 040 Hf
Expected CloudBase > 3,200 ft AGL from Temp-Dew spread
Ceiling4,000 ft
Temp17°C (ISA +3)
Dew Point09°C (59% RH)
AAT13.2°C
QNH1011 hPa
Density Alt1,181 ft
Elevation584 ft
Report Wrong Elevation
Raw Report
METAR EPRA 161030Z 26010KT 9999 BKN040 17/09 Q1011=

Extra information for EPRA:More info

Metar Taf Metar & Taf Last 4 Metars F.Rules Stats Wind Profile Meteogram Temp Stats Metar ALERT Operation Metar Decoded Social comments